sensor_id;sensor_type;location;lat;lon;timestamp;pressure;altitude;pressure_sealevel;temperature;humidity
63500;BME280;49654;51.142;14.924;2023-08-24T00:01:39;99485.38;;;16.78;75.63
63500;BME280;49654;51.142;14.924;2023-08-24T00:04:06;99476.53;;;16.60;75.83
63500;BME280;49654;51.142;14.924;2023-08-24T00:06:34;99369.66;;;15.90;76.85
63500;BME280;49654;51.142;14.924;2023-08-24T00:09:03;99490.25;;;16.68;76.96
63500;BME280;49654;51.142;14.924;2023-08-24T00:11:31;99496.28;;;16.69;77.36
63500;BME280;49654;51.142;14.924;2023-08-24T00:13:59;99490.03;;;16.70;77.28
63500;BME280;49654;51.142;14.924;2023-08-24T00:16:26;99492.66;;;16.70;76.61
63500;BME280;49654;51.142;14.924;2023-08-24T00:18:53;99494.47;;;16.69;76.26
63500;BME280;49654;51.142;14.924;2023-08-24T00:21:20;99496.91;;;16.64;76.71
63500;BME280;49654;51.142;14.924;2023-08-24T00:23:49;99491.28;;;16.54;77.03
63500;BME280;49654;51.142;14.924;2023-08-24T00:26:18;99497.31;;;16.61;77.36
63500;BME280;49654;51.142;14.924;2023-08-24T00:28:45;99391.00;;;15.94;77.40
63500;BME280;49654;51.142;14.924;2023-08-24T00:31:13;99448.78;;;16.25;77.68
63500;BME280;49654;51.142;14.924;2023-08-24T00:33:42;99498.72;;;16.57;78.08
63500;BME280;49654;51.142;14.924;2023-08-24T00:36:08;99501.97;;;16.59;77.86
63500;BME280;49654;51.142;14.924;2023-08-24T00:38:35;99473.34;;;16.51;77.49
63500;BME280;49654;51.142;14.924;2023-08-24T00:41:02;99496.50;;;16.61;77.56
63500;BME280;49654;51.142;14.924;2023-08-24T00:43:32;99498.94;;;16.56;77.50
63500;BME280;49654;51.142;14.924;2023-08-24T00:45:59;99501.78;;;16.54;77.95
63500;BME280;49654;51.142;14.924;2023-08-24T00:48:28;99482.03;;;16.45;77.96
63500;BME280;49654;51.142;14.924;2023-08-24T00:50:56;99494.53;;;16.49;77.57
63500;BME280;49654;51.142;14.924;2023-08-24T00:53:24;99489.06;;;16.44;77.96
63500;BME280;49654;51.142;14.924;2023-08-24T00:55:52;99486.66;;;16.43;78.09
63500;BME280;49654;51.142;14.924;2023-08-24T00:58:19;99486.06;;;16.41;78.30
63500;BME280;49654;51.142;14.924;2023-08-24T01:00:48;99477.22;;;16.28;78.35
63500;BME280;49654;51.142;14.924;2023-08-24T01:03:16;99491.72;;;16.38;78.53
63500;BME280;49654;51.142;14.924;2023-08-24T01:05:43;99494.13;;;16.39;77.99
63500;BME280;49654;51.142;14.924;2023-08-24T01:08:11;99489.72;;;16.33;78.08
63500;BME280;49654;51.142;14.924;2023-08-24T01:10:44;99485.84;;;16.36;78.53
63500;BME280;49654;51.142;14.924;2023-08-24T01:13:20;99489.91;;;16.38;78.39
63500;BME280;49654;51.142;14.924;2023-08-24T01:15:55;99454.28;;;16.11;77.88
63500;BME280;49654;51.142;14.924;2023-08-24T01:18:25;99491.09;;;16.36;77.96
63500;BME280;49654;51.142;14.924;2023-08-24T01:20:53;99495.75;;;16.34;78.02
63500;BME280;49654;51.142;14.924;2023-08-24T01:23:29;99493.94;;;16.34;77.92
63500;BME280;49654;51.142;14.924;2023-08-24T01:26:05;99476.81;;;16.25;77.35
63500;BME280;49654;51.142;14.924;2023-08-24T01:28:33;99488.28;;;16.37;76.76
63500;BME280;49654;51.142;14.924;2023-08-24T01:31:00;99456.88;;;16.11;77.20
63500;BME280;49654;51.142;14.924;2023-08-24T01:33:28;99486.69;;;16.30;77.01
63500;BME280;49654;51.142;14.924;2023-08-24T01:35:55;99494.75;;;16.21;76.98
63500;BME280;49654;51.142;14.924;2023-08-24T01:38:22;99452.25;;;15.93;76.99
63500;BME280;49654;51.142;14.924;2023-08-24T01:40:53;99491.13;;;16.09;77.33
63500;BME280;49654;51.142;14.924;2023-08-24T01:43:28;99421.44;;;15.68;77.90
63500;BME280;49654;51.142;14.924;2023-08-24T01:45:58;99484.28;;;16.01;77.70
63500;BME280;49654;51.142;14.924;2023-08-24T01:48:25;99480.47;;;15.97;77.66
63500;BME280;49654;51.142;14.924;2023-08-24T01:50:53;99487.13;;;15.93;78.12
63500;BME280;49654;51.142;14.924;2023-08-24T01:53:20;99484.06;;;15.96;78.07
63500;BME280;49654;51.142;14.924;2023-08-24T01:55:47;99484.28;;;15.95;78.00
63500;BME280;49654;51.142;14.924;2023-08-24T01:58:14;99483.66;;;15.93;78.01
63500;BME280;49654;51.142;14.924;2023-08-24T02:00:42;99439.13;;;15.60;78.16
63500;BME280;49654;51.142;14.924;2023-08-24T02:03:09;99480.84;;;15.88;78.45
63500;BME280;49654;51.142;14.924;2023-08-24T02:05:37;99485.09;;;15.89;78.70
63500;BME280;49654;51.142;14.924;2023-08-24T02:08:04;99485.09;;;15.89;79.05
63500;BME280;49654;51.142;14.924;2023-08-24T02:10:31;99471.59;;;15.78;79.41
63500;BME280;49654;51.142;14.924;2023-08-24T02:12:58;99478.03;;;15.83;79.81
63500;BME280;49654;51.142;14.924;2023-08-24T02:15:25;99482.88;;;15.86;79.27
63500;BME280;49654;51.142;14.924;2023-08-24T02:17:55;99464.16;;;15.89;78.84
63500;BME280;49654;51.142;14.924;2023-08-24T02:20:22;99425.22;;;15.59;78.13
63500;BME280;49654;51.142;14.924;2023-08-24T02:22:49;99458.69;;;15.84;78.61
63500;BME280;49654;51.142;14.924;2023-08-24T02:25:16;99457.47;;;15.80;78.38
63500;BME280;49654;51.142;14.924;2023-08-24T02:27:44;99456.88;;;15.71;79.18
63500;BME280;49654;51.142;14.924;2023-08-24T02:30:12;99454.47;;;15.76;79.28
63500;BME280;49654;51.142;14.924;2023-08-24T02:32:39;99460.91;;;15.80;79.30
63500;BME280;49654;51.142;14.924;2023-08-24T02:35:09;99460.69;;;15.75;78.94
63500;BME280;49654;51.142;14.924;2023-08-24T02:37:35;99462.72;;;15.73;78.57
63500;BME280;49654;51.142;14.924;2023-08-24T02:40:03;99455.88;;;15.65;78.22
63500;BME280;49654;51.142;14.924;2023-08-24T02:42:31;99448.56;;;15.47;78.88
63500;BME280;49654;51.142;14.924;2023-08-24T02:44:59;99453.41;;;15.57;79.51
63500;BME280;49654;51.142;14.924;2023-08-24T02:47:26;99462.28;;;15.56;79.86
63500;BME280;49654;51.142;14.924;2023-08-24T02:49:53;99462.28;;;15.56;80.49
63500;BME280;49654;51.142;14.924;2023-08-24T02:52:21;99459.66;;;15.56;81.12
63500;BME280;49654;51.142;14.924;2023-08-24T02:54:48;99468.34;;;15.63;81.36
63500;BME280;49654;51.142;14.924;2023-08-24T02:57:15;99463.91;;;15.64;80.31
63500;BME280;49654;51.142;14.924;2023-08-24T02:59:42;99472.72;;;15.63;80.51
63500;BME280;49654;51.142;14.924;2023-08-24T03:02:09;99440.50;;;15.49;79.78
63500;BME280;49654;51.142;14.924;2023-08-24T03:04:36;99460.66;;;15.55;79.78
63500;BME280;49654;51.142;14.924;2023-08-24T03:07:03;99467.31;;;15.51;80.65
63500;BME280;49654;51.142;14.924;2023-08-24T03:09:34;99462.06;;;15.51;81.45
63500;BME280;49654;51.142;14.924;2023-08-24T03:12:01;99463.88;;;15.57;80.74
63500;BME280;49654;51.142;14.924;2023-08-24T03:14:28;99468.91;;;15.59;80.43
63500;BME280;49654;51.142;14.924;2023-08-24T03:16:56;99461.03;;;15.59;80.08
63500;BME280;49654;51.142;14.924;2023-08-24T03:19:23;99449.75;;;15.45;80.49
63500;BME280;49654;51.142;14.924;2023-08-24T03:21:50;99467.28;;;15.58;80.57
63500;BME280;49654;51.142;14.924;2023-08-24T03:24:17;99456.44;;;15.61;79.74
63500;BME280;49654;51.142;14.924;2023-08-24T03:26:46;99450.97;;;15.49;79.10
63500;BME280;49654;51.142;14.924;2023-08-24T03:29:12;99372.38;;;14.89;79.26
63500;BME280;49654;51.142;14.924;2023-08-24T03:31:39;99465.66;;;15.50;80.07
63500;BME280;49654;51.142;14.924;2023-08-24T03:34:07;99382.22;;;14.94;80.42
63500;BME280;49654;51.142;14.924;2023-08-24T03:36:34;99398.56;;;15.02;80.62
63500;BME280;49654;51.142;14.924;2023-08-24T03:39:01;99473.13;;;15.46;80.72
63500;BME280;49654;51.142;14.924;2023-08-24T03:41:28;99474.31;;;15.44;80.92
63500;BME280;49654;51.142;14.924;2023-08-24T03:43:56;99443.28;;;15.27;81.25
63500;BME280;49654;51.142;14.924;2023-08-24T03:46:23;99425.75;;;15.15;80.64
63500;BME280;49654;51.142;14.924;2023-08-24T03:48:51;99386.06;;;14.98;80.32
63500;BME280;49654;51.142;14.924;2023-08-24T03:51:18;99460.81;;;15.34;80.05
63500;BME280;49654;51.142;14.924;2023-08-24T03:53:45;99467.88;;;15.33;80.10
63500;BME280;49654;51.142;14.924;2023-08-24T03:56:12;99472.28;;;15.26;80.52
63500;BME280;49654;51.142;14.924;2023-08-24T03:58:39;99459.78;;;15.28;80.81
63500;BME280;49654;51.142;14.924;2023-08-24T04:01:11;99438.03;;;15.14;81.00
63500;BME280;49654;51.142;14.924;2023-08-24T04:03:38;99463.16;;;15.15;81.52
63500;BME280;49654;51.142;14.924;2023-08-24T04:06:05;99447.84;;;15.06;82.30
63500;BME280;49654;51.142;14.924;2023-08-24T04:08:33;99466.03;;;15.20;82.13
63500;BME280;49654;51.142;14.924;2023-08-24T04:11:00;99461.81;;;15.26;81.70
63500;BME280;49654;51.142;14.924;2023-08-24T04:13:27;99462.63;;;15.26;81.18
63500;BME280;49654;51.142;14.924;2023-08-24T04:15:54;99475.66;;;15.20;81.96
63500;BME280;49654;51.142;14.924;2023-08-24T04:18:23;99471.06;;;15.22;83.26
63500;BME280;49654;51.142;14.924;2023-08-24T04:20:51;99422.72;;;15.05;83.38
63500;BME280;49654;51.142;14.924;2023-08-24T04:23:23;99445.66;;;15.16;83.11
63500;BME280;49654;51.142;14.924;2023-08-24T04:25:50;99444.47;;;15.18;82.81
63500;BME280;49654;51.142;14.924;2023-08-24T04:28:17;99478.53;;;15.32;82.81
63500;BME280;49654;51.142;14.924;2023-08-24T04:30:49;99448.97;;;15.38;81.53
63500;BME280;49654;51.142;14.924;2023-08-24T04:33:16;99467.91;;;15.53;81.50
63500;BME280;49654;51.142;14.924;2023-08-24T04:35:46;99479.78;;;15.62;81.26
63500;BME280;49654;51.142;14.924;2023-08-24T04:38:13;99464.72;;;15.64;81.83
63500;BME280;49654;51.142;14.924;2023-08-24T04:40:51;99453.22;;;15.52;82.36
63500;BME280;49654;51.142;14.924;2023-08-24T04:43:19;99436.25;;;15.41;83.36
63500;BME280;49654;51.142;14.924;2023-08-24T04:45:48;99455.25;;;15.63;83.41
63500;BME280;49654;51.142;14.924;2023-08-24T04:48:18;99467.16;;;15.72;82.75
63500;BME280;49654;51.142;14.924;2023-08-24T04:50:47;99482.28;;;15.90;81.52
63500;BME280;49654;51.142;14.924;2023-08-24T04:53:16;99468.56;;;15.82;81.87
63500;BME280;49654;51.142;14.924;2023-08-24T04:55:44;99470.38;;;15.88;81.74
63500;BME280;49654;51.142;14.924;2023-08-24T04:58:12;99435.53;;;15.74;82.00
63500;BME280;49654;51.142;14.924;2023-08-24T05:00:40;99401.47;;;15.61;82.27
63500;BME280;49654;51.142;14.924;2023-08-24T05:03:07;99455.28;;;16.03;81.74
63500;BME280;49654;51.142;14.924;2023-08-24T05:05:35;99470.78;;;16.11;82.05
63500;BME280;49654;51.142;14.924;2023-08-24T05:08:05;99468.56;;;16.15;82.55
63500;BME280;49654;51.142;14.924;2023-08-24T05:10:35;99454.66;;;16.21;82.82
63500;BME280;49654;51.142;14.924;2023-08-24T05:13:03;99466.72;;;16.35;82.28
63500;BME280;49654;51.142;14.924;2023-08-24T05:15:31;99453.63;;;16.28;81.98
63500;BME280;49654;51.142;14.924;2023-08-24T05:17:58;99459.66;;;16.42;82.25
63500;BME280;49654;51.142;14.924;2023-08-24T05:20:25;99467.09;;;16.52;82.46
63500;BME280;49654;51.142;14.924;2023-08-24T05:22:53;99480.81;;;16.54;82.78
63500;BME280;49654;51.142;14.924;2023-08-24T05:25:22;99453.78;;;16.47;83.45
63500;BME280;49654;51.142;14.924;2023-08-24T05:27:49;99461.84;;;16.59;83.13
63500;BME280;49654;51.142;14.924;2023-08-24T05:30:16;99475.91;;;16.84;82.72
63500;BME280;49654;51.142;14.924;2023-08-24T05:32:43;99455.72;;;16.85;82.14
63500;BME280;49654;51.142;14.924;2023-08-24T05:35:10;99460.53;;;16.94;82.35
63500;BME280;49654;51.142;14.924;2023-08-24T05:37:37;99446.63;;;16.87;82.68
63500;BME280;49654;51.142;14.924;2023-08-24T05:40:05;99447.41;;;16.94;82.98
63500;BME280;49654;51.142;14.924;2023-08-24T05:42:33;99468.69;;;17.18;82.91
63500;BME280;49654;51.142;14.924;2023-08-24T05:45:02;99458.13;;;17.31;82.42
63500;BME280;49654;51.142;14.924;2023-08-24T05:47:29;99459.44;;;17.47;82.34
63500;BME280;49654;51.142;14.924;2023-08-24T05:49:56;99456.19;;;17.51;82.88
63500;BME280;49654;51.142;14.924;2023-08-24T05:52:23;99469.41;;;17.70;83.34
63500;BME280;49654;51.142;14.924;2023-08-24T05:54:50;99469.53;;;17.82;83.18
63500;BME280;49654;51.142;14.924;2023-08-24T05:57:17;99436.63;;;17.72;83.06
63500;BME280;49654;51.142;14.924;2023-08-24T05:59:47;99470.41;;;18.00;83.54
63500;BME280;49654;51.142;14.924;2023-08-24T06:02:14;99475.56;;;18.07;83.68
63500;BME280;49654;51.142;14.924;2023-08-24T06:04:41;99435.28;;;17.95;83.61
63500;BME280;49654;51.142;14.924;2023-08-24T06:07:08;99471.03;;;18.21;83.54
63500;BME280;49654;51.142;14.924;2023-08-24T06:09:35;99474.09;;;18.36;83.08
63500;BME280;49654;51.142;14.924;2023-08-24T06:12:02;99476.44;;;18.44;82.91
63500;BME280;49654;51.142;14.924;2023-08-24T06:14:29;99459.44;;;18.47;82.82
63500;BME280;49654;51.142;14.924;2023-08-24T06:16:57;99472.16;;;18.68;82.66
63500;BME280;49654;51.142;14.924;2023-08-24T06:19:24;99447.50;;;18.69;81.77
63500;BME280;49654;51.142;14.924;2023-08-24T06:21:51;99469.25;;;18.95;81.66
63500;BME280;49654;51.142;14.924;2023-08-24T06:24:18;99466.31;;;19.03;81.32
63500;BME280;49654;51.142;14.924;2023-08-24T06:26:45;99458.16;;;19.23;80.11
63500;BME280;49654;51.142;14.924;2023-08-24T06:29:12;99459.28;;;19.27;79.07
63500;BME280;49654;51.142;14.924;2023-08-24T06:31:39;99405.66;;;19.10;78.84
63500;BME280;49654;51.142;14.924;2023-08-24T06:34:07;99437.41;;;19.45;78.01
63500;BME280;49654;51.142;14.924;2023-08-24T06:36:34;99450.41;;;19.82;76.47
63500;BME280;49654;51.142;14.924;2023-08-24T06:39:02;99439.66;;;19.95;75.13
63500;BME280;49654;51.142;14.924;2023-08-24T06:41:32;99437.81;;;20.07;73.42
63500;BME280;49654;51.142;14.924;2023-08-24T06:43:59;99430.38;;;20.04;72.47
63500;BME280;49654;51.142;14.924;2023-08-24T06:46:26;99440.69;;;20.29;70.19
63500;BME280;49654;51.142;14.924;2023-08-24T06:48:54;99448.22;;;20.37;70.17
63500;BME280;49654;51.142;14.924;2023-08-24T06:51:22;99443.91;;;20.43;67.14
63500;BME280;49654;51.142;14.924;2023-08-24T06:53:49;99445.88;;;20.88;65.25
63500;BME280;49654;51.142;14.924;2023-08-24T06:56:16;99445.31;;;21.14;64.03
63500;BME280;49654;51.142;14.924;2023-08-24T06:58:44;99423.53;;;21.07;61.48
63500;BME280;49654;51.142;14.924;2023-08-24T07:01:11;99426.72;;;21.09;60.16
63500;BME280;49654;51.142;14.924;2023-08-24T07:03:39;99444.66;;;21.36;60.28
63500;BME280;49654;51.142;14.924;2023-08-24T07:06:06;99439.66;;;21.51;60.62
63500;BME280;49654;51.142;14.924;2023-08-24T07:08:35;99405.75;;;21.48;60.43
63500;BME280;49654;51.142;14.924;2023-08-24T07:11:02;99417.22;;;21.70;59.21
63500;BME280;49654;51.142;14.924;2023-08-24T07:13:29;99428.50;;;21.83;60.06
63500;BME280;49654;51.142;14.924;2023-08-24T07:15:56;99423.06;;;21.89;59.61
63500;BME280;49654;51.142;14.924;2023-08-24T07:18:23;99445.31;;;22.27;59.82
63500;BME280;49654;51.142;14.924;2023-08-24T07:20:50;99440.53;;;22.46;57.64
63500;BME280;49654;51.142;14.924;2023-08-24T07:23:17;99445.50;;;22.42;56.50
63500;BME280;49654;51.142;14.924;2023-08-24T07:25:45;99436.59;;;22.48;57.35
63500;BME280;49654;51.142;14.924;2023-08-24T07:28:12;99447.56;;;22.79;55.18
63500;BME280;49654;51.142;14.924;2023-08-24T07:30:39;99443.38;;;22.83;56.11
63500;BME280;49654;51.142;14.924;2023-08-24T07:33:06;99447.56;;;23.01;54.82
63500;BME280;49654;51.142;14.924;2023-08-24T07:35:33;99457.63;;;23.26;53.62
63500;BME280;49654;51.142;14.924;2023-08-24T07:38:00;99446.22;;;23.26;52.85
63500;BME280;49654;51.142;14.924;2023-08-24T07:40:28;99453.50;;;23.40;52.87
63500;BME280;49654;51.142;14.924;2023-08-24T07:42:57;99453.25;;;23.69;52.92
63500;BME280;49654;51.142;14.924;2023-08-24T07:45:24;99429.81;;;23.61;52.20
63500;BME280;49654;51.142;14.924;2023-08-24T07:47:51;99439.88;;;23.91;51.65
63500;BME280;49654;51.142;14.924;2023-08-24T07:50:18;99455.50;;;23.87;48.82
63500;BME280;49654;51.142;14.924;2023-08-24T07:52:45;99460.94;;;24.08;49.53
63500;BME280;49654;51.142;14.924;2023-08-24T07:55:12;99456.16;;;24.05;48.65
63500;BME280;49654;51.142;14.924;2023-08-24T07:57:39;99462.09;;;23.85;49.01
63500;BME280;49654;51.142;14.924;2023-08-24T08:00:08;99445.22;;;23.96;49.44
63500;BME280;49654;51.142;14.924;2023-08-24T08:02:35;99437.91;;;24.18;48.63
63500;BME280;49654;51.142;14.924;2023-08-24T08:05:03;99455.34;;;24.46;47.67
63500;BME280;49654;51.142;14.924;2023-08-24T08:07:32;99444.16;;;24.39;47.58
63500;BME280;49654;51.142;14.924;2023-08-24T08:09:59;99452.72;;;24.52;48.05
63500;BME280;49654;51.142;14.924;2023-08-24T08:12:26;99456.50;;;24.71;47.68
63500;BME280;49654;51.142;14.924;2023-08-24T08:14:53;99448.31;;;24.78;45.82
63500;BME280;49654;51.142;14.924;2023-08-24T08:17:21;99456.06;;;24.94;47.50
63500;BME280;49654;51.142;14.924;2023-08-24T08:19:49;99441.09;;;24.68;46.02
63500;BME280;49654;51.142;14.924;2023-08-24T08:22:16;99448.53;;;24.71;47.38
63500;BME280;49654;51.142;14.924;2023-08-24T08:24:43;99412.44;;;24.70;48.63
63500;BME280;49654;51.142;14.924;2023-08-24T08:27:10;99440.19;;;25.30;49.73
63500;BME280;49654;51.142;14.924;2023-08-24T08:29:37;99446.59;;;25.29;46.98
63500;BME280;49654;51.142;14.924;2023-08-24T08:32:04;99445.00;;;25.28;45.80
63500;BME280;49654;51.142;14.924;2023-08-24T08:34:34;99442.34;;;25.33;46.95
63500;BME280;49654;51.142;14.924;2023-08-24T08:37:02;99439.19;;;25.57;46.13
63500;BME280;49654;51.142;14.924;2023-08-24T08:39:29;99446.34;;;25.56;49.59
63500;BME280;49654;51.142;14.924;2023-08-24T08:41:56;99397.16;;;25.48;47.98
63500;BME280;49654;51.142;14.924;2023-08-24T08:44:25;99428.78;;;25.91;45.21
63500;BME280;49654;51.142;14.924;2023-08-24T08:46:57;99435.63;;;26.22;46.89
63500;BME280;49654;51.142;14.924;2023-08-24T08:49:24;99442.53;;;26.44;44.75
63500;BME280;49654;51.142;14.924;2023-08-24T08:51:52;99441.00;;;26.17;44.85
63500;BME280;49654;51.142;14.924;2023-08-24T08:54:19;99442.31;;;26.15;42.97
63500;BME280;49654;51.142;14.924;2023-08-24T08:56:46;99433.53;;;26.14;44.04
63500;BME280;49654;51.142;14.924;2023-08-24T08:59:14;99416.28;;;25.96;43.74
63500;BME280;49654;51.142;14.924;2023-08-24T09:01:42;99436.19;;;26.14;43.01
63500;BME280;49654;51.142;14.924;2023-08-24T09:04:11;99440.41;;;26.20;44.93
63500;BME280;49654;51.142;14.924;2023-08-24T09:06:39;99418.09;;;26.11;43.09
63500;BME280;49654;51.142;14.924;2023-08-24T09:09:08;99436.97;;;26.20;42.74
63500;BME280;49654;51.142;14.924;2023-08-24T09:11:35;99406.41;;;26.12;42.77
63500;BME280;49654;51.142;14.924;2023-08-24T09:16:29;99427.06;;;26.36;41.52
63500;BME280;49654;51.142;14.924;2023-08-24T09:18:56;99423.66;;;26.30;40.48
63500;BME280;49654;51.142;14.924;2023-08-24T09:21:24;99425.97;;;26.42;42.01
63500;BME280;49654;51.142;14.924;2023-08-24T09:23:53;99427.88;;;26.36;42.89
63500;BME280;49654;51.142;14.924;2023-08-24T09:26:28;99324.72;;;26.03;40.95
63500;BME280;49654;51.142;14.924;2023-08-24T09:28:56;99409.69;;;27.13;38.75
63500;BME280;49654;51.142;14.924;2023-08-24T09:31:23;99408.38;;;28.27;39.06
63500;BME280;49654;51.142;14.924;2023-08-24T09:33:59;99405.78;;;29.54;33.04
63500;BME280;49654;51.142;14.924;2023-08-24T09:36:26;99400.34;;;31.42;30.99
63500;BME280;49654;51.142;14.924;2023-08-24T09:38:55;99388.19;;;33.16;29.52
63500;BME280;49654;51.142;14.924;2023-08-24T09:41:22;99385.13;;;33.52;27.36
63500;BME280;49654;51.142;14.924;2023-08-24T09:43:51;99382.78;;;34.48;27.32
63500;BME280;49654;51.142;14.924;2023-08-24T09:46:18;99365.41;;;35.00;25.50
63500;BME280;49654;51.142;14.924;2023-08-24T09:48:53;99379.84;;;35.49;24.68
63500;BME280;49654;51.142;14.924;2023-08-24T09:51:20;99378.75;;;35.75;21.87
63500;BME280;49654;51.142;14.924;2023-08-24T09:53:48;99382.09;;;34.93;22.31
63500;BME280;49654;51.142;14.924;2023-08-24T09:56:15;99379.88;;;33.56;23.95
63500;BME280;49654;51.142;14.924;2023-08-24T09:58:44;99380.03;;;32.21;25.48
63500;BME280;49654;51.142;14.924;2023-08-24T10:01:15;99384.50;;;31.09;27.72
63500;BME280;49654;51.142;14.924;2023-08-24T10:03:44;99359.25;;;30.52;30.52
63500;BME280;49654;51.142;14.924;2023-08-24T10:06:12;99363.25;;;29.99;32.29
63500;BME280;49654;51.142;14.924;2023-08-24T10:08:43;99357.41;;;29.83;34.55
63500;BME280;49654;51.142;14.924;2023-08-24T10:11:17;99356.72;;;29.45;32.18
63500;BME280;49654;51.142;14.924;2023-08-24T10:13:50;99355.75;;;28.70;34.47
63500;BME280;49654;51.142;14.924;2023-08-24T10:16:21;99323.81;;;28.60;33.92
63500;BME280;49654;51.142;14.924;2023-08-24T10:18:50;99347.97;;;28.74;33.81
63500;BME280;49654;51.142;14.924;2023-08-24T10:21:18;99335.34;;;28.61;35.08
63500;BME280;49654;51.142;14.924;2023-08-24T10:23:46;99330.91;;;28.51;33.50
63500;BME280;49654;51.142;14.924;2023-08-24T10:26:13;99342.97;;;29.05;35.19
63500;BME280;49654;51.142;14.924;2023-08-24T10:28:43;99344.13;;;29.32;34.40
63500;BME280;49654;51.142;14.924;2023-08-24T10:31:10;99341.84;;;29.25;32.91
63500;BME280;49654;51.142;14.924;2023-08-24T10:33:39;99333.22;;;29.75;32.50
63500;BME280;49654;51.142;14.924;2023-08-24T10:36:07;99334.69;;;30.08;31.13
63500;BME280;49654;51.142;14.924;2023-08-24T10:38:35;99330.19;;;30.81;30.05
63500;BME280;49654;51.142;14.924;2023-08-24T10:41:06;99328.66;;;31.11;30.54
63500;BME280;49654;51.142;14.924;2023-08-24T10:43:34;99304.06;;;30.51;29.44
63500;BME280;49654;51.142;14.924;2023-08-24T10:46:02;99319.13;;;30.60;29.29
63500;BME280;49654;51.142;14.924;2023-08-24T10:48:30;99336.19;;;31.01;29.65
63500;BME280;49654;51.142;14.924;2023-08-24T10:51:18;99325.78;;;31.30;29.66
63500;BME280;49654;51.142;14.924;2023-08-24T10:53:48;99276.53;;;31.66;29.85
63500;BME280;49654;51.142;14.924;2023-08-24T10:56:18;99313.31;;;32.14;28.86
63500;BME280;49654;51.142;14.924;2023-08-24T10:58:46;99286.47;;;32.31;27.11
63500;BME280;49654;51.142;14.924;2023-08-24T11:01:16;99307.00;;;32.19;27.89
63500;BME280;49654;51.142;14.924;2023-08-24T11:03:49;99310.84;;;31.38;29.99
63500;BME280;49654;51.142;14.924;2023-08-24T11:06:22;99303.22;;;30.64;28.40
63500;BME280;49654;51.142;14.924;2023-08-24T11:08:57;99300.38;;;30.83;30.89
63500;BME280;49654;51.142;14.924;2023-08-24T11:11:32;99209.91;;;30.66;28.43
63500;BME280;49654;51.142;14.924;2023-08-24T11:14:17;99289.94;;;31.57;29.15
63500;BME280;49654;51.142;14.924;2023-08-24T11:16:46;99290.25;;;32.04;31.42
63500;BME280;49654;51.142;14.924;2023-08-24T11:19:14;99283.34;;;32.38;26.90
63500;BME280;49654;51.142;14.924;2023-08-24T11:21:44;99283.47;;;32.41;25.83
63500;BME280;49654;51.142;14.924;2023-08-24T11:24:13;99269.41;;;32.36;26.97
63500;BME280;49654;51.142;14.924;2023-08-24T11:26:41;99276.19;;;32.85;27.31
63500;BME280;49654;51.142;14.924;2023-08-24T11:29:09;99272.09;;;33.35;25.77
63500;BME280;49654;51.142;14.924;2023-08-24T11:31:37;99273.88;;;34.20;25.90
63500;BME280;49654;51.142;14.924;2023-08-24T11:34:04;99284.06;;;34.89;25.22
63500;BME280;49654;51.142;14.924;2023-08-24T11:36:42;99290.69;;;33.10;25.69
63500;BME280;49654;51.142;14.924;2023-08-24T11:39:15;99288.06;;;32.58;27.73
63500;BME280;49654;51.142;14.924;2023-08-24T11:41:42;99273.56;;;32.42;25.99
63500;BME280;49654;51.142;14.924;2023-08-24T11:44:10;99279.03;;;32.37;26.03
63500;BME280;49654;51.142;14.924;2023-08-24T11:46:37;99272.84;;;32.97;26.54
63500;BME280;49654;51.142;14.924;2023-08-24T11:49:05;99233.03;;;32.64;25.92
63500;BME280;49654;51.142;14.924;2023-08-24T11:51:32;99254.78;;;32.89;29.14
63500;BME280;49654;51.142;14.924;2023-08-24T11:54:02;99256.44;;;32.73;28.46
63500;BME280;49654;51.142;14.924;2023-08-24T11:56:30;99258.78;;;32.83;28.46
63500;BME280;49654;51.142;14.924;2023-08-24T11:58:57;99251.81;;;33.37;26.48
63500;BME280;49654;51.142;14.924;2023-08-24T12:01:24;99254.16;;;34.28;26.24
63500;BME280;49654;51.142;14.924;2023-08-24T12:03:53;99246.72;;;34.79;25.00
63500;BME280;49654;51.142;14.924;2023-08-24T12:06:20;99243.03;;;34.50;26.70
63500;BME280;49654;51.142;14.924;2023-08-24T12:08:47;99237.22;;;33.77;24.06
63500;BME280;49654;51.142;14.924;2023-08-24T12:11:18;99226.03;;;33.45;26.14
63500;BME280;49654;51.142;14.924;2023-08-24T12:13:47;99235.38;;;33.30;25.07
63500;BME280;49654;51.142;14.924;2023-08-24T12:16:15;99208.75;;;33.08;28.08
63500;BME280;49654;51.142;14.924;2023-08-24T12:18:55;99223.81;;;32.92;30.39
63500;BME280;49654;51.142;14.924;2023-08-24T12:21:23;99214.53;;;32.54;26.67
63500;BME280;49654;51.142;14.924;2023-08-24T12:23:58;99219.81;;;32.42;27.68
63500;BME280;49654;51.142;14.924;2023-08-24T12:26:27;99218.59;;;32.95;28.83
63500;BME280;49654;51.142;14.924;2023-08-24T12:28:59;99223.25;;;34.25;29.21
63500;BME280;49654;51.142;14.924;2023-08-24T12:31:27;99214.97;;;35.46;26.34
63500;BME280;49654;51.142;14.924;2023-08-24T12:33:59;99175.59;;;36.97;22.69
63500;BME280;49654;51.142;14.924;2023-08-24T12:36:26;99208.19;;;38.26;20.31
63500;BME280;49654;51.142;14.924;2023-08-24T12:38:53;99126.88;;;39.21;19.16
63500;BME280;49654;51.142;14.924;2023-08-24T12:41:21;99182.34;;;40.89;17.38
63500;BME280;49654;51.142;14.924;2023-08-24T12:43:50;99190.56;;;42.92;16.98
63500;BME280;49654;51.142;14.924;2023-08-24T12:46:17;99178.06;;;45.18;14.41
63500;BME280;49654;51.142;14.924;2023-08-24T12:48:44;99163.91;;;45.27;16.12
63500;BME280;49654;51.142;14.924;2023-08-24T12:51:11;99155.53;;;45.72;14.90
63500;BME280;49654;51.142;14.924;2023-08-24T12:53:38;99163.47;;;47.18;13.77
63500;BME280;49654;51.142;14.924;2023-08-24T12:56:05;99154.84;;;46.49;14.06
63500;BME280;49654;51.142;14.924;2023-08-24T12:58:32;99157.63;;;47.56;12.68